Time;durP1;ratioP1;P1;durP2;ratioP2;P2;SDS_P1;SDS_P2;PMS_P1;PMS_P2;Temp;Humidity;BMP_temperature;BMP_pressure;BME280_temperature;BME280_humidity;BME280_pressure;Samples;Min_cycle;Max_cycle;Signal;HPM_P1;HPM_P2
2021/12/11 00:02:06;;;;;;;4.37;1.97;;;3.10;99.90;;;;;;4998321;28;20679;-90
2021/12/11 00:04:37;;;;;;;3.53;2.07;;;3.10;99.90;;;;;;4998824;28;20234;-90
2021/12/11 00:07:10;;;;;;;3.33;1.50;;;3.10;99.90;;;;;;4999279;28;20176;-90
2021/12/11 00:09:43;;;;;;;3.33;1.77;;;3.10;99.90;;;;;;5005651;28;20199;-89
2021/12/11 00:12:16;;;;;;;3.53;2.20;;;3.10;99.90;;;;;;5018284;28;20214;-89
2021/12/11 00:14:46;;;;;;;2.87;2.00;;;3.10;99.90;;;;;;5018621;28;20178;-89
2021/12/11 00:17:18;;;;;;;1.80;1.40;;;3.10;99.90;;;;;;5017279;28;20256;-90
2021/12/11 00:19:46;;;;;;;2.17;1.40;;;3.10;99.90;;;;;;5018126;28;20206;-90
2021/12/11 00:22:16;;;;;;;2.33;1.43;;;3.10;99.90;;;;;;5018351;28;20269;-89
2021/12/11 00:28:29;;;;;;;2.43;1.60;;;3.10;99.90;;;;;;5035479;28;20236;-89
2021/12/11 00:30:58;;;;;;;2.40;1.57;;;3.10;99.90;;;;;;5018193;28;20178;-90
2021/12/11 00:33:27;;;;;;;2.90;1.40;;;3.10;99.90;;;;;;5017883;28;20178;-90
2021/12/11 00:35:55;;;;;;;1.73;1.40;;;3.10;99.90;;;;;;5017886;28;20197;-89
2021/12/11 00:38:33;;;;;;;2.63;1.97;;;3.10;99.90;;;;;;5017778;28;20201;-89
2021/12/11 00:41:01;;;;;;;3.67;1.60;;;3.10;99.90;;;;;;5017717;28;20256;-89
2021/12/11 00:43:30;;;;;;;2.77;1.67;;;3.10;99.90;;;;;;5017170;28;20250;-90
2021/12/11 00:45:58;;;;;;;6.13;1.67;;;3.10;99.90;;;;;;5017903;28;20171;-90
2021/12/11 00:48:27;;;;;;;2.50;1.70;;;3.10;99.90;;;;;;5017744;28;20283;-90
2021/12/11 00:51:11;;;;;;;3.57;1.33;;;3.20;99.90;;;;;;5017704;28;20182;-90
2021/12/11 00:53:47;;;;;;;1.77;1.53;;;3.10;99.90;;;;;;5018116;28;20208;-90
2021/12/11 00:56:23;;;;;;;2.50;1.40;;;3.20;99.90;;;;;;5017926;28;20193;-90
2021/12/11 00:58:53;;;;;;;2.40;1.47;;;3.20;99.90;;;;;;5017314;28;20209;-90
2021/12/11 01:01:30;;;;;;;1.37;1.23;;;3.20;99.90;;;;;;5017424;28;20229;-90
2021/12/11 01:04:12;;;;;;;2.00;1.37;;;3.20;99.90;;;;;;5017891;28;20222;-89
2021/12/11 01:06:48;;;;;;;4.13;1.83;;;3.20;99.90;;;;;;5017672;28;20174;-89
2021/12/11 01:09:22;;;;;;;3.90;2.03;;;3.20;99.90;;;;;;5016901;28;20195;-90
2021/12/11 01:12:06;;;;;;;2.33;1.80;;;3.20;99.90;;;;;;5017512;28;20178;-89
2021/12/11 01:14:41;;;;;;;2.10;1.60;;;3.20;99.90;;;;;;5017763;28;20217;-89
2021/12/11 01:17:20;;;;;;;3.37;1.70;;;3.20;99.90;;;;;;5017227;28;20221;-90
2021/12/11 01:19:51;;;;;;;2.73;1.53;;;3.20;99.90;;;;;;5016666;28;20225;-90
2021/12/11 01:22:33;;;;;;;2.47;1.60;;;3.20;99.90;;;;;;5017113;28;20189;-89
2021/12/11 01:25:14;;;;;;;2.97;1.53;;;3.20;99.90;;;;;;5017023;28;20167;-90
2021/12/11 01:27:44;;;;;;;4.20;1.73;;;3.20;99.90;;;;;;5016369;28;20170;-89
2021/12/11 01:30:18;;;;;;;2.30;1.57;;;3.20;99.90;;;;;;5016476;28;20217;-89
2021/12/11 01:32:45;;;;;;;1.93;1.37;;;3.20;99.90;;;;;;5016795;28;20170;-88
2021/12/11 01:35:13;;;;;;;1.70;1.37;;;3.20;99.90;;;;;;5016997;28;20265;-90
2021/12/11 01:37:40;;;;;;;1.40;1.30;;;3.20;99.90;;;;;;5016773;28;20171;-89
2021/12/11 01:40:13;;;;;;;2.03;1.30;;;3.20;99.90;;;;;;5016403;28;20198;-89
2021/12/11 01:42:41;;;;;;;2.23;1.20;;;3.20;99.90;;;;;;5017159;28;20181;-90
2021/12/11 01:45:11;;;;;;;4.13;1.40;;;3.20;99.90;;;;;;5016897;28;20189;-90
2021/12/11 01:47:40;;;;;;;2.73;1.93;;;3.20;99.90;;;;;;5016884;28;20262;-90
2021/12/11 01:50:31;;;;;;;2.23;1.50;;;3.20;99.90;;;;;;5016589;28;20273;-90
2021/12/11 01:53:20;;;;;;;2.80;1.30;;;3.20;99.90;;;;;;5016497;28;20214;-90
2021/12/11 01:55:48;;;;;;;2.03;1.40;;;3.20;99.90;;;;;;5016416;28;20202;-90
2021/12/11 01:58:24;;;;;;;2.87;1.50;;;3.20;99.90;;;;;;5016139;28;20206;-90
2021/12/11 02:05:12;;;;;;;2.37;1.60;;;3.20;99.90;;;;;;5033933;28;20205;-90
2021/12/11 02:07:46;;;;;;;1.50;1.20;;;3.20;99.90;;;;;;5016493;28;20174;-90
2021/12/11 02:10:23;;;;;;;3.03;1.40;;;3.20;99.90;;;;;;5016235;28;20170;-90
2021/12/11 02:12:51;;;;;;;1.80;1.27;;;3.20;99.90;;;;;;5016508;28;20178;-90
2021/12/11 02:15:29;;;;;;;1.53;1.27;;;3.20;99.90;;;;;;5016573;28;20202;-89
2021/12/11 02:18:13;;;;;;;1.60;1.40;;;3.10;99.90;;;;;;5016262;28;20205;-89
2021/12/11 02:21:03;;;;;;;2.50;1.27;;;3.10;99.90;;;;;;5016079;28;20277;-90
2021/12/11 02:23:29;;;;;;;2.70;1.93;;;3.20;99.90;;;;;;5016065;28;20225;-90
2021/12/11 02:26:01;;;;;;;1.73;1.20;;;3.10;99.90;;;;;;5015921;28;20232;-90
2021/12/11 02:28:44;;;;;;;1.30;1.20;;;3.10;99.90;;;;;;5015708;28;20333;-89
2021/12/11 02:31:26;;;;;;;1.67;1.20;;;3.20;99.90;;;;;;5015750;28;20224;-89
2021/12/11 02:34:07;;;;;;;3.80;1.13;;;3.10;99.90;;;;;;5016249;28;20198;-90
2021/12/11 02:36:46;;;;;;;3.27;1.20;;;3.10;99.90;;;;;;5015847;28;20198;-89
2021/12/11 02:39:20;;;;;;;1.10;0.90;;;3.20;99.90;;;;;;5015000;28;20201;-90
2021/12/11 02:42:02;;;;;;;1.93;1.30;;;3.20;99.90;;;;;;5015994;28;20213;-90
2021/12/11 02:44:38;;;;;;;1.30;1.03;;;3.20;99.90;;;;;;5016152;28;20167;-90
2021/12/11 02:47:26;;;;;;;3.17;1.10;;;3.20;99.90;;;;;;5016072;28;20201;-89
2021/12/11 02:50:05;;;;;;;1.83;1.13;;;3.20;99.90;;;;;;5015673;28;20257;-90
2021/12/11 02:52:38;;;;;;;2.47;1.20;;;3.20;99.90;;;;;;5016040;28;20269;-90
2021/12/11 02:55:16;;;;;;;1.47;1.03;;;3.20;99.90;;;;;;5015540;28;20170;-90
2021/12/11 02:57:56;;;;;;;2.60;1.03;;;3.20;99.90;;;;;;5015533;28;20185;-90
2021/12/11 03:00:24;;;;;;;1.73;1.27;;;3.20;99.90;;;;;;5015212;28;20202;-89
2021/12/11 03:03:01;;;;;;;1.37;1.13;;;3.10;99.90;;;;;;5015562;28;20178;-90
2021/12/11 03:05:37;;;;;;;3.13;1.33;;;3.10;99.90;;;;;;5015521;28;20210;-90
2021/12/11 03:08:05;;;;;;;3.13;1.57;;;3.10;99.90;;;;;;5015470;28;20205;-89
2021/12/11 03:10:33;;;;;;;3.40;1.60;;;3.10;99.90;;;;;;5015439;28;20183;-90
2021/12/11 03:12:59;;;;;;;2.90;1.70;;;3.10;99.90;;;;;;5015458;28;20221;-90
2021/12/11 03:15:25;;;;;;;4.63;2.37;;;3.10;99.90;;;;;;5015139;28;20183;-90
2021/12/11 03:17:51;;;;;;;2.07;1.70;;;3.10;99.90;;;;;;5012052;28;20275;-90
2021/12/11 03:20:21;;;;;;;1.80;1.33;;;3.10;99.90;;;;;;5011684;28;20289;-90
2021/12/11 03:22:47;;;;;;;2.43;1.20;;;3.10;99.90;;;;;;5012310;28;20682;-90
2021/12/11 03:25:18;;;;;;;2.20;1.13;;;3.10;99.90;;;;;;5012014;28;20230;-90
2021/12/11 03:27:45;;;;;;;1.93;1.20;;;3.10;99.90;;;;;;5012581;28;20198;-90
2021/12/11 03:30:14;;;;;;;1.67;1.20;;;3.10;99.90;;;;;;5012143;28;20237;-90
2021/12/11 03:32:40;;;;;;;2.40;1.33;;;3.20;99.90;;;;;;5011899;28;20183;-89
2021/12/11 03:35:28;;;;;;;1.40;1.30;;;3.20;99.90;;;;;;5011647;28;20203;-90
2021/12/11 03:37:56;;;;;;;2.10;1.37;;;3.10;99.90;;;;;;5012188;28;20183;-90
2021/12/11 03:40:23;;;;;;;2.27;1.13;;;3.10;99.90;;;;;;5021431;28;20225;-90
2021/12/11 03:42:50;;;;;;;1.83;1.10;;;3.10;99.90;;;;;;5015087;28;20229;-89
2021/12/11 03:45:22;;;;;;;1.20;1.10;;;3.10;99.90;;;;;;5014533;28;20187;-90
2021/12/11 03:47:55;;;;;;;2.20;1.27;;;3.10;99.90;;;;;;5014953;28;20217;-90
2021/12/11 03:50:22;;;;;;;2.20;1.17;;;3.10;99.90;;;;;;5032469;28;20175;-90
2021/12/11 03:52:50;;;;;;;2.30;1.20;;;3.10;99.90;;;;;;5018687;28;20241;-89
2021/12/11 03:55:23;;;;;;;1.33;1.20;;;3.10;99.90;;;;;;5019061;28;20186;-90
2021/12/11 03:57:56;;;;;;;1.30;1.13;;;3.10;99.90;;;;;;5018756;28;20197;-89
2021/12/11 04:00:25;;;;;;;1.17;1.00;;;3.10;99.90;;;;;;5018517;28;20202;-90
2021/12/11 04:03:42;;;;;;;0.90;0.80;;;3.10;99.90;;;;;;5035176;28;20185;-90
2021/12/11 04:06:11;;;;;;;1.07;0.97;;;3.10;99.90;;;;;;5018594;28;20182;-90
2021/12/11 04:08:43;;;;;;;1.30;1.10;;;3.00;99.90;;;;;;5018215;28;20233;-90
2021/12/11 04:11:12;;;;;;;2.50;0.90;;;3.00;99.90;;;;;;5018574;28;20177;-90
2021/12/11 04:13:38;;;;;;;1.97;1.10;;;3.10;99.90;;;;;;5018703;28;20270;-90
2021/12/11 04:16:05;;;;;;;2.27;1.07;;;3.10;99.90;;;;;;5018124;28;20525;-90
2021/12/11 04:18:31;;;;;;;1.90;1.00;;;3.10;99.90;;;;;;5017940;28;20202;-90
2021/12/11 04:21:51;;;;;;;1.87;1.10;;;3.10;99.90;;;;;;5018060;28;20206;-90
2021/12/11 04:24:19;;;;;;;1.13;0.90;;;3.10;99.90;;;;;;5018633;28;20163;-90
2021/12/11 04:26:46;;;;;;;1.13;1.03;;;3.00;99.90;;;;;;5018043;28;20175;-90
2021/12/11 04:29:13;;;;;;;1.73;1.07;;;3.00;99.90;;;;;;5017751;28;20244;-90
2021/12/11 04:31:42;;;;;;;1.27;1.10;;;3.00;99.90;;;;;;5018205;28;20182;-90
2021/12/11 04:34:12;;;;;;;1.17;1.07;;;3.00;99.90;;;;;;5017908;28;20264;-90
2021/12/11 04:37:14;;;;;;;1.23;1.00;;;3.00;99.90;;;;;;5017873;28;20187;-90
2021/12/11 04:39:43;;;;;;;1.50;1.10;;;3.00;99.90;;;;;;5017527;28;20202;-90
2021/12/11 04:42:23;;;;;;;1.10;1.00;;;2.90;99.90;;;;;;5017957;28;20202;-90
2021/12/11 04:44:49;;;;;;;1.17;1.00;;;2.90;99.90;;;;;;5018184;28;20174;-90
2021/12/11 04:50:07;;;;;;;1.10;1.00;;;2.90;99.90;;;;;;5034235;28;20202;-90
2021/12/11 04:52:34;;;;;;;1.33;1.20;;;2.90;99.90;;;;;;5017596;28;20178;-90
2021/12/11 05:00:35;;;;;;;0.97;0.90;;;2.90;99.90;;;;;;5033824;28;20206;-90
2021/12/11 05:09:17;;;;;;;2.97;1.10;;;2.90;99.90;;;;;;5012458;28;20195;-90
2021/12/11 05:11:38;;;;;;;4.13;1.03;;;2.90;99.90;;;;;;4996609;28;20179;-91
2021/12/11 05:14:07;;;;;;;1.03;1.00;;;2.90;99.90;;;;;;5011329;28;20183;-90
2021/12/11 05:16:33;;;;;;;1.40;1.00;;;2.90;99.90;;;;;;5017049;28;20639;-90
2021/12/11 05:18:59;;;;;;;1.13;1.03;;;2.90;99.90;;;;;;5016656;28;20203;-90
2021/12/11 05:21:25;;;;;;;1.00;0.90;;;2.90;99.90;;;;;;5016748;28;20202;-90
2021/12/11 05:23:52;;;;;;;0.80;0.80;;;2.90;99.90;;;;;;5017194;28;20179;-90
2021/12/11 05:26:20;;;;;;;1.97;1.07;;;2.80;99.90;;;;;;5016794;28;20186;-90
2021/12/11 05:28:46;;;;;;;1.23;1.07;;;2.90;99.90;;;;;;5016706;28;20252;-90
2021/12/11 05:31:12;;;;;;;0.90;0.90;;;2.90;99.90;;;;;;5017085;28;20187;-90
2021/12/11 05:33:40;;;;;;;1.07;0.97;;;2.90;99.90;;;;;;5016779;28;20273;-90
2021/12/11 05:36:09;;;;;;;1.20;1.10;;;2.90;99.90;;;;;;5016783;28;20182;-90
2021/12/11 05:38:39;;;;;;;1.10;1.00;;;2.90;99.90;;;;;;5016141;28;20210;-90
2021/12/11 05:41:08;;;;;;;1.30;1.10;;;2.90;99.90;;;;;;5016541;28;20305;-89
2021/12/11 05:43:34;;;;;;;0.90;0.90;;;2.90;99.90;;;;;;5016615;28;20246;-90
2021/12/11 05:46:01;;;;;;;2.23;0.97;;;2.90;99.90;;;;;;5010923;28;20233;-90
2021/12/11 05:48:27;;;;;;;1.33;1.23;;;2.90;99.90;;;;;;5013098;28;20199;-90
2021/12/11 05:50:57;;;;;;;1.57;1.40;;;2.90;99.90;;;;;;5013182;28;20194;-90
2021/12/11 05:53:24;;;;;;;1.53;1.43;;;2.90;99.90;;;;;;5013377;28;20176;-90
2021/12/11 05:55:54;;;;;;;1.57;1.47;;;2.90;99.90;;;;;;5012981;28;20194;-90
2021/12/11 06:01:34;;;;;;;1.83;1.67;;;2.80;99.90;;;;;;5011915;28;20251;-90
2021/12/11 06:04:07;;;;;;;2.43;1.97;;;2.80;99.90;;;;;;5013069;28;20694;-90
2021/12/11 06:06:34;;;;;;;2.43;2.17;;;2.80;99.90;;;;;;5012920;28;20621;-90
2021/12/11 06:09:01;;;;;;;3.40;3.00;;;2.80;99.90;;;;;;5023760;28;20195;-90
2021/12/11 06:11:27;;;;;;;4.13;2.73;;;2.70;99.90;;;;;;5016019;28;20277;-90
2021/12/11 06:13:53;;;;;;;3.07;2.57;;;2.70;99.90;;;;;;5015055;28;20183;-90
2021/12/11 06:16:19;;;;;;;2.70;2.50;;;2.80;99.90;;;;;;5016018;28;20182;-89
2021/12/11 06:18:45;;;;;;;3.07;2.43;;;2.80;99.90;;;;;;5015483;28;20206;-90
2021/12/11 06:21:16;;;;;;;2.87;2.40;;;2.80;99.90;;;;;;5015785;28;20203;-90
2021/12/11 06:23:42;;;;;;;2.27;2.07;;;2.70;99.90;;;;;;5016220;28;20187;-90
2021/12/11 06:26:48;;;;;;;2.10;1.90;;;2.80;99.90;;;;;;5032077;28;20228;-90
2021/12/11 06:29:14;;;;;;;1.90;1.80;;;2.80;99.90;;;;;;5015996;28;20194;-90
2021/12/11 06:32:04;;;;;;;2.83;2.53;;;2.70;99.90;;;;;;5015534;28;20182;-90
2021/12/11 06:34:33;;;;;;;2.50;2.20;;;2.70;99.90;;;;;;5015768;28;20182;-90
2021/12/11 06:36:59;;;;;;;2.37;2.17;;;2.70;99.90;;;;;;5015687;28;20183;-90
2021/12/11 06:39:26;;;;;;;2.40;2.20;;;2.70;99.90;;;;;;5015674;28;20308;-90
2021/12/11 06:41:57;;;;;;;2.73;2.53;;;2.70;99.90;;;;;;5015605;28;20264;-90
2021/12/11 06:44:28;;;;;;;3.67;3.03;;;2.60;99.90;;;;;;5016153;28;20225;-90
2021/12/11 06:46:58;;;;;;;3.60;3.27;;;2.60;99.90;;;;;;5006694;28;20206;-90
2021/12/11 06:49:26;;;;;;;3.00;2.80;;;2.60;99.90;;;;;;5015833;28;20199;-90
2021/12/11 06:51:53;;;;;;;3.70;3.20;;;2.60;99.90;;;;;;5016135;28;20182;-90
2021/12/11 06:54:20;;;;;;;2.80;2.60;;;2.60;99.90;;;;;;5015994;28;20166;-90
2021/12/11 06:56:46;;;;;;;2.77;2.57;;;2.60;99.90;;;;;;5015836;28;20242;-90
2021/12/11 06:59:13;;;;;;;3.00;2.80;;;2.60;99.90;;;;;;5015494;28;20224;-90
2021/12/11 07:01:40;;;;;;;3.20;2.90;;;2.60;99.90;;;;;;5015038;28;20221;-90
2021/12/11 07:04:09;;;;;;;3.00;2.70;;;2.60;99.90;;;;;;5015769;28;20179;-89
2021/12/11 07:06:38;;;;;;;3.30;3.00;;;2.60;99.90;;;;;;5012587;28;20179;-90
2021/12/11 07:09:06;;;;;;;3.03;2.73;;;2.60;99.90;;;;;;5011734;28;20672;-90
2021/12/11 07:11:33;;;;;;;3.93;2.90;;;2.60;99.90;;;;;;5011385;28;20241;-90
2021/12/11 07:14:00;;;;;;;3.07;2.77;;;2.60;99.90;;;;;;5027911;28;20183;-91
2021/12/11 07:16:26;;;;;;;3.07;2.77;;;2.70;99.90;;;;;;5031728;28;20190;-90
2021/12/11 07:18:52;;;;;;;3.43;3.13;;;2.70;99.90;;;;;;5016434;28;20247;-90
2021/12/11 07:21:18;;;;;;;3.87;3.57;;;2.70;99.90;;;;;;5015129;28;20297;-90
2021/12/11 07:23:48;;;;;;;3.33;3.03;;;2.70;99.90;;;;;;5015371;28;20243;-90
2021/12/11 07:26:22;;;;;;;3.93;3.20;;;2.70;99.90;;;;;;5018081;28;20266;-90
2021/12/11 07:28:53;;;;;;;3.50;3.20;;;2.70;99.90;;;;;;5019081;28;20205;-90
2021/12/11 07:31:21;;;;;;;4.77;3.70;;;2.70;99.90;;;;;;5019226;28;20170;-90
2021/12/11 07:33:48;;;;;;;6.37;3.30;;;2.70;99.90;;;;;;5019016;28;20190;-86
2021/12/11 07:36:15;;;;;;;4.23;3.80;;;2.70;99.90;;;;;;5018896;28;20273;-90
2021/12/11 07:38:41;;;;;;;3.63;3.33;;;2.70;99.90;;;;;;5016877;28;20734;-90
2021/12/11 07:41:11;;;;;;;4.03;3.50;;;2.70;99.90;;;;;;5018427;28;20203;-90
2021/12/11 07:43:39;;;;;;;5.73;4.10;;;2.70;99.90;;;;;;5018729;28;20179;-90
2021/12/11 07:46:06;;;;;;;6.77;3.73;;;2.70;99.90;;;;;;5035291;28;20179;-90
2021/12/11 07:48:33;;;;;;;3.93;3.63;;;2.70;99.90;;;;;;5018338;28;20199;-90
2021/12/11 07:50:59;;;;;;;5.60;4.60;;;2.70;99.90;;;;;;5023250;28;20183;-91
2021/12/11 07:53:25;;;;;;;5.17;4.67;;;2.70;99.90;;;;;;5042995;28;20170;-90
2021/12/11 07:55:52;;;;;;;4.87;4.47;;;2.70;99.90;;;;;;5026679;28;20179;-91
2021/12/11 07:58:19;;;;;;;6.53;3.90;;;2.70;99.90;;;;;;5019404;28;20635;-92
2021/12/11 08:01:27;;;;;;;4.60;4.13;;;2.70;99.90;;;;;;5018678;28;20214;-91
2021/12/11 08:03:57;;;;;;;4.87;4.20;;;2.70;99.90;;;;;;5018657;28;20199;-91
2021/12/11 08:06:23;;;;;;;5.57;4.50;;;2.70;99.90;;;;;;5018591;28;20178;-92
2021/12/11 08:08:49;;;;;;;6.07;4.33;;;2.70;99.90;;;;;;5018115;28;20260;-91
2021/12/11 08:11:18;;;;;;;4.43;3.93;;;2.70;99.90;;;;;;5018212;28;20178;-90
2021/12/11 08:13:47;;;;;;;4.47;4.07;;;2.70;99.90;;;;;;5017361;28;20183;-91
2021/12/11 08:16:18;;;;;;;4.93;4.40;;;2.70;99.90;;;;;;5011335;28;20195;-90
2021/12/11 08:18:44;;;;;;;5.27;4.30;;;2.70;99.90;;;;;;5014787;28;20207;-89
2021/12/11 08:21:10;;;;;;;3.93;3.23;;;2.70;99.90;;;;;;5014910;28;20207;-89
2021/12/11 08:23:43;;;;;;;4.40;3.53;;;2.70;99.90;;;;;;5014795;28;20175;-90
2021/12/11 08:26:20;;;;;;;3.40;3.03;;;2.70;99.90;;;;;;5014842;28;20183;-90
2021/12/11 08:28:49;;;;;;;3.90;3.13;;;2.70;99.90;;;;;;5014295;28;20210;-91
2021/12/11 08:31:15;;;;;;;4.77;3.40;;;2.70;99.90;;;;;;5031668;28;20199;-90
2021/12/11 08:33:42;;;;;;;3.70;2.83;;;2.70;99.90;;;;;;5018199;28;20227;-90
2021/12/11 08:36:09;;;;;;;3.30;3.00;;;2.70;99.90;;;;;;5017516;28;20179;-90
2021/12/11 08:38:35;;;;;;;3.37;3.07;;;2.70;99.90;;;;;;5016825;28;20214;-90
2021/12/11 08:41:05;;;;;;;3.37;3.07;;;2.70;99.90;;;;;;5017940;28;20206;-91
2021/12/11 08:43:31;;;;;;;3.03;2.73;;;2.70;99.90;;;;;;5017655;28;20301;-90
2021/12/11 08:46:10;;;;;;;3.10;2.80;;;2.70;99.90;;;;;;5017938;28;20263;-90
2021/12/11 08:48:48;;;;;;;3.13;2.80;;;2.60;99.90;;;;;;5017935;28;20202;-90
2021/12/11 08:51:25;;;;;;;2.50;2.30;;;2.60;99.90;;;;;;5017794;28;20266;-91
2021/12/11 08:53:52;;;;;;;5.37;3.60;;;2.60;99.90;;;;;;5017911;28;20178;-91
2021/12/11 08:56:19;;;;;;;15.63;7.97;;;2.50;99.90;;;;;;5017818;28;20178;-91
2021/12/11 08:58:48;;;;;;;11.77;7.00;;;2.50;99.90;;;;;;5017089;28;20202;-91
2021/12/11 09:01:32;;;;;;;9.77;5.50;;;2.40;99.90;;;;;;5022682;28;20210;-93
2021/12/11 09:04:10;;;;;;;5.03;3.77;;;2.30;99.90;;;;;;5019019;28;20173;-90
2021/12/11 09:07:32;;;;;;;2.70;2.50;;;2.30;99.90;;;;;;5017937;28;20170;-86
2021/12/11 09:10:24;;;;;;;3.07;2.77;;;2.30;99.90;;;;;;5013925;28;20198;-91
2021/12/11 09:13:15;;;;;;;2.50;2.30;;;2.30;99.90;;;;;;5017170;28;20241;-91
2021/12/11 09:16:17;;;;;;;3.13;2.37;;;2.30;99.90;;;;;;5033149;28;20214;-91
2021/12/11 09:18:54;;;;;;;4.33;2.60;;;2.30;99.90;;;;;;5007897;28;20248;-90
2021/12/11 09:21:33;;;;;;;3.87;3.37;;;2.30;99.90;;;;;;5017182;28;20206;-91
2021/12/11 09:24:19;;;;;;;5.57;4.03;;;2.30;99.90;;;;;;5017190;28;20178;-90
2021/12/11 09:27:03;;;;;;;4.90;4.10;;;2.30;99.90;;;;;;5033760;28;20186;-91
2021/12/11 09:29:41;;;;;;;4.60;3.80;;;2.30;99.90;;;;;;5016774;28;20205;-90
2021/12/11 09:32:10;;;;;;;3.77;3.27;;;2.30;99.90;;;;;;5016749;28;20174;-90
2021/12/11 09:35:10;;;;;;;4.70;4.00;;;2.30;99.90;;;;;;5016333;28;20187;-91
2021/12/11 09:37:36;;;;;;;7.13;4.30;;;2.40;99.90;;;;;;5007904;28;20191;-90
2021/12/11 09:40:35;;;;;;;4.30;3.90;;;2.40;99.90;;;;;;5020428;28;20240;-91
2021/12/11 09:43:02;;;;;;;5.37;4.27;;;2.40;99.90;;;;;;5042408;28;20194;-90
2021/12/11 09:45:39;;;;;;;5.77;4.20;;;2.40;99.90;;;;;;5013522;28;20178;-90
2021/12/11 09:48:15;;;;;;;5.60;5.00;;;2.50;99.90;;;;;;5031196;28;20195;-90
2021/12/11 09:50:52;;;;;;;6.93;6.00;;;2.50;99.90;;;;;;5020284;28;20191;-90
2021/12/11 09:53:23;;;;;;;7.70;6.00;;;2.50;99.90;;;;;;5028134;28;20308;-90
2021/12/11 09:55:50;;;;;;;7.37;6.23;;;2.60;99.90;;;;;;5033196;28;20242;-90
2021/12/11 09:58:21;;;;;;;8.53;6.73;;;2.60;99.90;;;;;;5001577;28;20202;-90
2021/12/11 10:00:47;;;;;;;8.20;6.23;;;2.60;99.90;;;;;;5021137;28;20226;-90
2021/12/11 10:03:16;;;;;;;6.33;5.43;;;2.70;99.90;;;;;;5010601;28;20245;-89
2021/12/11 10:06:26;;;;;;;7.93;5.37;;;2.70;99.90;;;;;;5023748;28;20179;-90
2021/12/11 10:09:09;;;;;;;5.93;5.23;;;2.80;99.90;;;;;;5013788;28;20206;-90
2021/12/11 10:11:37;;;;;;;6.83;5.00;;;2.80;99.90;;;;;;5032709;28;20167;-90
2021/12/11 10:14:10;;;;;;;6.03;5.43;;;2.80;99.90;;;;;;5032963;28;20179;-90
2021/12/11 10:16:44;;;;;;;6.20;5.43;;;2.80;99.90;;;;;;5032806;28;20165;-91
2021/12/11 10:19:13;;;;;;;6.63;5.63;;;2.90;99.90;;;;;;5032368;28;20297;-91
2021/12/11 10:21:51;;;;;;;5.77;4.80;;;2.90;99.90;;;;;;5032159;28;20206;-90
2021/12/11 10:24:21;;;;;;;6.30;5.13;;;2.90;99.90;;;;;;5015488;28;20174;-91
2021/12/11 10:26:47;;;;;;;6.27;5.10;;;3.00;99.90;;;;;;5016009;28;20186;-90
2021/12/11 10:29:15;;;;;;;5.27;4.73;;;3.00;99.90;;;;;;5015839;28;20190;-90
2021/12/11 10:32:02;;;;;;;6.00;5.40;;;3.10;99.90;;;;;;5015791;28;20182;-90
2021/12/11 10:34:30;;;;;;;6.00;4.87;;;3.10;99.90;;;;;;5016117;28;20185;-90
2021/12/11 10:37:08;;;;;;;7.13;4.83;;;3.20;99.90;;;;;;5015899;28;20251;-90
2021/12/11 10:39:37;;;;;;;6.70;4.90;;;3.20;99.90;;;;;;5015333;28;20288;-90
2021/12/11 10:42:04;;;;;;;5.90;5.30;;;3.20;99.90;;;;;;5015810;28;20215;-90
2021/12/11 10:44:38;;;;;;;7.63;6.83;;;3.20;99.90;;;;;;5015891;28;20193;-91
2021/12/11 10:47:13;;;;;;;7.50;6.23;;;3.20;99.90;;;;;;5001646;28;20198;-90
2021/12/11 10:49:42;;;;;;;6.60;5.83;;;3.30;99.90;;;;;;5012464;28;20205;-90
2021/12/11 10:52:17;;;;;;;8.60;7.53;;;3.30;99.90;;;;;;5012550;28;20180;-90
2021/12/11 10:54:43;;;;;;;8.70;7.67;;;3.40;99.90;;;;;;5012235;28;20186;-90
2021/12/11 10:57:09;;;;;;;12.73;8.80;;;3.40;99.90;;;;;;5013151;28;20278;-90
2021/12/11 10:59:40;;;;;;;9.17;6.37;;;3.50;99.90;;;;;;5015145;28;20202;-91
2021/12/11 11:02:11;;;;;;;7.27;6.57;;;3.60;99.90;;;;;;5009276;28;20211;-91
2021/12/11 11:04:43;;;;;;;7.73;6.63;;;3.50;99.90;;;;;;5016625;28;20262;-90
2021/12/11 11:07:11;;;;;;;8.50;6.80;;;3.60;99.90;;;;;;5023385;28;20183;-90
2021/12/11 11:09:39;;;;;;;8.20;6.67;;;3.70;99.90;;;;;;5034912;28;20205;-91
2021/12/11 11:12:11;;;;;;;8.60;6.60;;;3.70;99.90;;;;;;5035923;28;20266;-90
2021/12/11 11:14:37;;;;;;;8.43;6.87;;;3.70;99.90;;;;;;5036336;28;20179;-91
2021/12/11 11:17:08;;;;;;;10.33;6.80;;;3.70;99.90;;;;;;5036096;28;20197;-91
2021/12/11 11:19:38;;;;;;;6.57;5.37;;;3.80;99.90;;;;;;5018760;28;20202;-90
2021/12/11 11:22:08;;;;;;;9.50;7.10;;;3.80;99.90;;;;;;5018718;28;20260;-90
2021/12/11 11:24:39;;;;;;;8.10;6.63;;;3.80;99.90;;;;;;5019109;28;20190;-90
2021/12/11 11:27:06;;;;;;;9.00;7.00;;;3.90;99.90;;;;;;5035742;28;20210;-91
2021/12/11 11:29:34;;;;;;;10.47;8.00;;;4.00;99.90;;;;;;5018944;28;20244;-90
2021/12/11 11:32:06;;;;;;;10.40;7.60;;;4.10;99.90;;;;;;5018936;28;20184;-90
2021/12/11 11:34:39;;;;;;;7.17;5.63;;;4.20;99.90;;;;;;5019248;28;20186;-90
2021/12/11 11:37:10;;;;;;;6.43;4.93;;;4.20;99.90;;;;;;5018752;28;20187;-90
2021/12/11 11:39:37;;;;;;;5.60;4.57;;;4.30;99.90;;;;;;5032357;28;20215;-90
2021/12/11 11:42:09;;;;;;;5.90;4.93;;;4.30;99.90;;;;;;5020211;28;20229;-90
2021/12/11 11:44:35;;;;;;;6.33;5.07;;;4.30;99.90;;;;;;5031993;28;20191;-90
2021/12/11 11:47:04;;;;;;;5.30;4.80;;;4.30;99.90;;;;;;5035329;28;20179;-90
2021/12/11 11:49:30;;;;;;;4.90;4.40;;;4.30;99.90;;;;;;5028814;28;20195;-91
2021/12/11 11:52:02;;;;;;;5.93;4.50;;;4.30;99.90;;;;;;5015631;28;20179;-90
2021/12/11 11:54:32;;;;;;;5.20;4.50;;;4.30;99.90;;;;;;5019187;28;20170;-90
2021/12/11 11:57:05;;;;;;;5.70;4.30;;;4.20;99.90;;;;;;5025656;28;20202;-90
2021/12/11 11:59:32;;;;;;;5.43;4.50;;;4.20;99.90;;;;;;5051334;28;20212;-89
2021/12/11 12:02:05;;;;;;;5.13;4.37;;;4.30;99.90;;;;;;5035074;28;20209;-90
2021/12/11 12:04:34;;;;;;;5.57;4.40;;;4.30;99.90;;;;;;5016162;28;20185;-90
2021/12/11 12:07:03;;;;;;;5.17;4.67;;;4.30;99.90;;;;;;5014970;28;20175;-90
2021/12/11 12:09:32;;;;;;;6.37;5.23;;;4.20;99.90;;;;;;5022422;28;20289;-90
2021/12/11 12:11:59;;;;;;;6.53;5.47;;;4.20;99.90;;;;;;5017762;28;20178;-90
2021/12/11 12:14:33;;;;;;;7.03;5.63;;;4.20;99.90;;;;;;5018052;28;20183;-90
2021/12/11 12:17:00;;;;;;;6.40;5.07;;;4.10;99.90;;;;;;5032040;28;20241;-90
2021/12/11 12:19:30;;;;;;;7.57;6.27;;;4.10;99.90;;;;;;5017423;28;20202;-90
2021/12/11 12:22:19;;;;;;;5.90;5.27;;;4.10;99.90;;;;;;5017673;28;20245;-90
2021/12/11 12:24:47;;;;;;;6.97;5.67;;;4.00;99.90;;;;;;5010450;28;20190;-90
2021/12/11 12:27:17;;;;;;;7.03;5.87;;;4.00;99.90;;;;;;5016773;28;20186;-90
2021/12/11 12:29:45;;;;;;;7.00;6.20;;;3.90;99.90;;;;;;5014259;28;20199;-90
2021/12/11 12:32:23;;;;;;;6.77;6.07;;;3.90;99.90;;;;;;5014791;28;20175;-90
2021/12/11 12:34:53;;;;;;;6.97;6.27;;;3.90;99.90;;;;;;5019981;28;20179;-90
2021/12/11 12:37:24;;;;;;;8.00;7.00;;;3.90;99.90;;;;;;5034287;28;20185;-91
2021/12/11 12:39:55;;;;;;;7.33;6.57;;;3.90;99.90;;;;;;5016208;28;20227;-90
2021/12/11 12:43:05;;;;;;;7.40;6.23;;;3.80;99.90;;;;;;5032421;28;20207;-90
2021/12/11 12:45:43;;;;;;;7.30;6.10;;;3.80;99.90;;;;;;5016566;28;20171;-90
2021/12/11 12:48:16;;;;;;;6.93;5.83;;;3.80;99.90;;;;;;5014386;28;20195;-90
2021/12/11 12:51:04;;;;;;;6.80;5.80;;;3.80;99.90;;;;;;5032541;28;20182;-90
2021/12/11 12:53:33;;;;;;;6.73;6.03;;;3.80;99.90;;;;;;5012639;28;20238;-89
2021/12/11 12:56:21;;;;;;;7.40;6.60;;;3.80;99.90;;;;;;5029455;28;20659;-90
2021/12/11 12:58:56;;;;;;;6.03;5.37;;;3.80;99.90;;;;;;4997443;28;20195;-90
2021/12/11 13:01:39;;;;;;;7.00;5.93;;;3.90;99.90;;;;;;5009260;28;20205;-90
2021/12/11 13:04:09;;;;;;;7.77;6.40;;;3.80;99.90;;;;;;5017255;28;20175;-90
2021/12/11 13:06:40;;;;;;;9.33;7.77;;;3.80;99.90;;;;;;5017260;28;20218;-90
2021/12/11 13:09:22;;;;;;;9.17;6.97;;;3.80;99.90;;;;;;5017361;28;20205;-90
2021/12/11 13:11:56;;;;;;;8.53;7.53;;;3.80;99.90;;;;;;5017178;28;20175;-90
2021/12/11 13:14:23;;;;;;;7.70;6.17;;;3.80;99.90;;;;;;5009512;28;20182;-90
2021/12/11 13:16:55;;;;;;;11.07;8.97;;;3.80;99.90;;;;;;5026814;28;20194;-90
2021/12/11 13:19:29;;;;;;;9.00;7.47;;;3.70;99.90;;;;;;5016963;28;20343;-90
2021/12/11 13:22:06;;;;;;;8.47;6.67;;;3.70;99.90;;;;;;5016618;28;20209;-90
2021/12/11 13:24:32;;;;;;;9.80;8.13;;;3.70;99.90;;;;;;5016667;28;20221;-89
2021/12/11 13:27:07;;;;;;;11.00;6.87;;;3.70;99.90;;;;;;5016233;28;20201;-90
2021/12/11 13:29:39;;;;;;;7.47;5.90;;;3.70;99.90;;;;;;5013195;28;20195;-90
2021/12/11 13:32:14;;;;;;;6.57;5.30;;;3.70;99.90;;;;;;5022212;28;20168;-90
2021/12/11 13:34:42;;;;;;;9.77;7.17;;;3.60;99.90;;;;;;5026251;28;20194;-89
2021/12/11 13:37:12;;;;;;;9.47;7.77;;;3.60;99.90;;;;;;5002014;28;20185;-91
2021/12/11 13:39:39;;;;;;;45.00;23.90;;;3.60;99.90;;;;;;5029032;28;20296;-90
2021/12/11 13:42:08;;;;;;;8.40;5.80;;;3.60;99.90;;;;;;5030733;28;20206;-90
2021/12/11 13:44:37;;;;;;;8.27;6.83;;;3.60;99.90;;;;;;5029347;28;20186;-90
2021/12/11 13:47:10;;;;;;;6.90;5.70;;;3.60;99.90;;;;;;5032963;28;20182;-90
2021/12/11 13:49:37;;;;;;;8.93;6.43;;;3.60;99.90;;;;;;5015308;28;20217;-90
2021/12/11 13:52:03;;;;;;;8.67;6.00;;;3.60;99.90;;;;;;5016143;28;20198;-90